Webb, Canada
Current Conditions -  °F | °C
As of 11:00 AM on Saturday 25 Oct 2014 (Local Time) from CYYN Reporting Station
Clear Clear  
Wind Chill: 45°   Ceiling: Unl
Heat Index: 48°   Visibility: 9mi
Dew Point: 30°   Wind: 7mph
Humidity: 50%   Direction: 140°SE
Pressure: 30.02"   Gusts: NA
Location:  50.18°N, 108.2°W
Report Text: CYYN 251700Z AUTO 14006KT 9SM CLR 09/M01 A3002 RMK SLP184
Loading
Personal Weather Stations






























Interactive Weather Map
Tropical Storm Tracking
New forecast layout! Learn more

10-Day Weather Forecast

Advertisements
Track Severe Weather on mobile